createdAt,value
2023-04-18T00:03:57.609Z,55.85
2023-04-18T00:06:39.296Z,56.20
2023-04-18T00:09:13.831Z,54.63
2023-04-18T00:11:52.183Z,54.45
2023-04-18T00:14:54.160Z,53.40
2023-04-18T00:17:33.521Z,55.10
2023-04-18T00:20:12.115Z,54.98
2023-04-18T00:23:02.502Z,54.06
2023-04-18T00:26:04.982Z,53.75
2023-04-18T00:28:45.116Z,54.27
2023-04-18T00:32:46.837Z,52.72
2023-04-18T00:35:07.068Z,52.55
2023-04-18T00:37:35.095Z,53.70
2023-04-18T00:40:02.223Z,53.20
2023-04-18T00:42:32.233Z,52.48
2023-04-18T00:45:01.669Z,53.02
2023-04-18T00:47:31.668Z,55.01
2023-04-18T00:50:28.855Z,53.07
2023-04-18T00:53:01.478Z,53.03
2023-04-18T00:55:58.962Z,53.20
2023-04-18T00:58:59.753Z,52.89
2023-04-18T01:01:47.496Z,55.10
2023-04-18T01:04:30.105Z,54.29
2023-04-18T01:09:46.691Z,54.18
2023-04-18T01:12:16.424Z,53.24
2023-04-18T01:15:12.903Z,52.50
2023-04-18T01:17:46.432Z,51.92
2023-04-18T01:20:14.014Z,52.42
2023-04-18T01:22:53.669Z,53.07
2023-04-18T01:25:43.624Z,52.52
2023-04-18T01:28:20.158Z,51.78
2023-04-18T01:33:41.291Z,53.16
2023-04-18T01:36:15.742Z,52.61
2023-04-18T01:39:06.225Z,51.19
2023-04-18T01:41:41.388Z,53.25
2023-04-18T01:44:17.972Z,52.42
2023-04-18T01:47:15.853Z,50.95
2023-04-18T01:49:52.598Z,50.32
2023-04-18T01:52:49.977Z,50.60
2023-04-18T01:55:28.865Z,52.21
2023-04-18T01:57:56.088Z,52.51
2023-04-18T02:00:24.476Z,51.60
2023-04-18T02:02:54.810Z,51.34
2023-04-18T02:05:22.005Z,51.96
2023-04-18T02:07:52.042Z,50.16
2023-04-18T02:10:28.721Z,49.92
2023-04-18T02:13:01.377Z,49.99
2023-04-18T02:15:29.704Z,50.14
2023-04-18T02:18:03.126Z,51.48
2023-04-18T02:20:37.595Z,51.89
2023-04-18T02:23:11.915Z,51.14
2023-04-18T02:25:40.024Z,49.89
2023-04-18T02:28:17.105Z,49.48
2023-04-18T02:30:44.159Z,50.11
2023-04-18T02:33:14.823Z,50.38
2023-04-18T02:35:42.750Z,50.50
2023-04-18T02:38:17.458Z,51.09
2023-04-18T02:40:44.565Z,50.25
2023-04-18T02:43:11.609Z,50.29
2023-04-18T02:45:38.836Z,51.07
2023-04-18T02:48:05.837Z,51.68
2023-04-18T02:50:32.879Z,51.58
2023-04-18T02:53:00.477Z,51.32
2023-04-18T02:55:35.788Z,50.99
2023-04-18T02:58:02.894Z,52.81
2023-04-18T03:00:29.930Z,51.63
2023-04-18T03:03:00.288Z,51.44
2023-04-18T03:05:27.346Z,51.61
2023-04-18T03:07:57.123Z,51.28
2023-04-18T03:10:24.314Z,50.82
2023-04-18T03:12:54.457Z,50.90
2023-04-18T03:15:24.362Z,51.37
2023-04-18T03:17:51.577Z,53.19
2023-04-18T03:20:21.258Z,51.53
2023-04-18T03:22:48.277Z,52.75
2023-04-18T03:25:15.782Z,52.92
2023-04-18T03:27:47.745Z,52.87
2023-04-18T03:30:15.879Z,52.20
2023-04-18T03:32:49.182Z,51.67
2023-04-18T03:35:29.931Z,51.32
2023-04-18T03:37:57.814Z,51.53
2023-04-18T03:40:25.150Z,52.62
2023-04-18T03:42:52.211Z,52.74
2023-04-18T03:45:19.133Z,52.91
2023-04-18T03:47:46.472Z,52.08
2023-04-18T03:50:13.440Z,50.95
2023-04-18T03:52:40.558Z,51.45
2023-04-18T03:55:07.812Z,52.01
2023-04-18T03:57:37.969Z,51.73
2023-04-18T04:00:06.179Z,51.29
2023-04-18T04:02:36.593Z,52.41
2023-04-18T04:05:03.870Z,54.57
2023-04-18T04:07:32.312Z,52.27
2023-04-18T04:09:59.355Z,52.01
2023-04-18T04:12:29.442Z,52.84
2023-04-18T04:15:07.663Z,53.06
2023-04-18T04:17:37.722Z,53.59
2023-04-18T04:20:05.636Z,52.57
2023-04-18T04:22:33.057Z,52.45
2023-04-18T04:25:06.832Z,52.67
2023-04-18T04:27:39.263Z,52.18
2023-04-18T04:30:11.914Z,51.90
2023-04-18T04:32:43.278Z,52.73
2023-04-18T04:35:14.596Z,52.18
2023-04-18T04:37:48.201Z,52.32
2023-04-18T04:40:15.958Z,52.60
2023-04-18T04:42:46.203Z,52.83
2023-04-18T04:45:15.947Z,52.20
2023-04-18T04:47:49.127Z,52.45
2023-04-18T04:50:16.162Z,52.83
2023-04-18T04:52:49.498Z,52.99
2023-04-18T04:55:17.709Z,53.95
2023-04-18T04:57:48.076Z,53.38
2023-04-18T05:00:21.932Z,51.93
2023-04-18T05:02:49.711Z,51.68
2023-04-18T05:05:17.929Z,51.72
2023-04-18T05:07:47.953Z,51.42
2023-04-18T05:10:25.404Z,52.43
2023-04-18T05:13:04.797Z,52.33
2023-04-18T05:15:35.298Z,52.33
2023-04-18T05:18:10.062Z,51.76
2023-04-18T05:20:38.725Z,52.14
2023-04-18T05:23:05.721Z,52.25
2023-04-18T05:25:35.921Z,51.85
2023-04-18T05:28:09.312Z,51.84
2023-04-18T05:31:04.357Z,52.28
2023-04-18T05:33:33.937Z,52.22
2023-04-18T05:36:04.334Z,52.33
2023-04-18T05:38:31.391Z,52.55
2023-04-18T05:41:00.584Z,53.09
2023-04-18T05:43:29.121Z,52.36
2023-04-18T05:45:58.957Z,52.20
2023-04-18T05:48:26.143Z,52.42
2023-04-18T05:50:59.431Z,52.09
2023-04-18T05:53:33.945Z,52.11
2023-04-18T05:56:04.004Z,52.27
2023-04-18T05:58:33.840Z,51.43
2023-04-18T06:01:01.067Z,52.11
2023-04-18T06:03:28.469Z,51.47
2023-04-18T06:06:00.499Z,51.08
2023-04-18T06:08:27.714Z,50.43
2023-04-18T06:10:54.753Z,49.67
2023-04-18T06:13:27.819Z,49.85
2023-04-18T06:15:55.004Z,51.30
2023-04-18T06:18:22.076Z,51.11
2023-04-18T06:20:49.188Z,49.75
2023-04-18T06:23:22.087Z,49.16
2023-04-18T06:25:55.410Z,48.96
2023-04-18T06:28:27.523Z,49.50
2023-04-18T06:30:57.499Z,49.09
2023-04-18T06:33:36.849Z,49.57
2023-04-18T06:36:05.790Z,49.80
2023-04-18T06:38:38.869Z,50.08
2023-04-18T06:41:05.948Z,49.88
2023-04-18T06:43:52.039Z,49.59
2023-04-18T06:46:28.735Z,49.61
2023-04-18T06:48:57.460Z,50.98
2023-04-18T06:51:24.657Z,49.95
2023-04-18T06:53:54.641Z,49.60
2023-04-18T06:56:21.902Z,50.55
2023-04-18T06:58:53.185Z,49.34
2023-04-18T07:01:20.488Z,49.13
2023-04-18T07:03:47.677Z,49.77
2023-04-18T07:06:15.910Z,49.15
2023-04-18T07:08:49.064Z,49.04
2023-04-18T07:11:18.654Z,49.68
2023-04-18T07:13:49.661Z,48.91
2023-04-18T07:16:19.982Z,49.07
2023-04-18T07:18:51.295Z,49.03
2023-04-18T07:21:25.863Z,48.97
2023-04-18T07:23:56.548Z,48.68
2023-04-18T07:26:43.294Z,48.60
2023-04-18T07:29:10.225Z,49.02
2023-04-18T07:31:39.455Z,48.15
2023-04-18T07:34:06.608Z,49.11
2023-04-18T07:36:42.461Z,48.90
2023-04-18T07:39:09.842Z,49.69
2023-04-18T07:41:36.829Z,50.53
2023-04-18T07:44:16.298Z,49.93
2023-04-18T07:46:43.782Z,48.42
2023-04-18T07:49:14.092Z,48.21
2023-04-18T07:51:44.504Z,46.90
2023-04-18T07:54:11.669Z,47.37
2023-04-18T07:56:38.916Z,47.32
2023-04-18T07:59:06.140Z,48.25
2023-04-18T08:01:33.511Z,47.64
2023-04-18T08:04:02.337Z,47.94
2023-04-18T08:06:30.996Z,47.36
2023-04-18T08:08:59.622Z,47.16
2023-04-18T08:11:32.605Z,46.60
2023-04-18T08:14:00.089Z,46.22
2023-04-18T08:16:27.702Z,46.71
2023-04-18T08:18:54.704Z,47.16
2023-04-18T08:21:24.982Z,46.69
2023-04-18T08:23:52.085Z,46.51
2023-04-18T08:26:28.261Z,48.67
2023-04-18T08:29:02.820Z,48.72
2023-04-18T08:31:31.894Z,49.02
2023-04-18T08:33:59.047Z,48.84
2023-04-18T08:36:26.649Z,48.30
2023-04-18T08:38:56.701Z,45.30
2023-04-18T08:41:27.725Z,46.67
2023-04-18T08:43:59.323Z,45.69
2023-04-18T08:46:36.120Z,47.45
2023-04-18T08:49:06.466Z,45.29
2023-04-18T08:51:34.782Z,47.18
2023-04-18T08:54:06.570Z,47.71
2023-04-18T08:56:38.060Z,47.68
2023-04-18T08:59:08.440Z,47.70
2023-04-18T09:02:07.905Z,47.36
2023-04-18T09:04:42.444Z,47.46
2023-04-18T09:07:17.273Z,47.57
2023-04-18T09:09:58.027Z,47.81
2023-04-18T09:12:28.037Z,47.69
2023-04-18T09:15:16.940Z,47.66
2023-04-18T09:17:54.427Z,46.75
2023-04-18T09:20:47.860Z,47.91
2023-04-18T09:23:34.023Z,47.81
2023-04-18T09:26:01.012Z,47.30
2023-04-18T09:28:43.149Z,46.84
2023-04-18T09:31:13.356Z,47.33
2023-04-18T09:33:57.145Z,47.43
2023-04-18T09:36:30.624Z,47.11
2023-04-18T09:39:04.506Z,47.64
2023-04-18T09:41:39.745Z,47.64
2023-04-18T09:44:25.223Z,47.54
2023-04-18T09:46:52.574Z,47.73
2023-04-18T09:49:23.617Z,47.20
2023-04-18T09:52:04.696Z,47.58
2023-04-18T09:54:38.723Z,47.49
2023-04-18T09:57:11.609Z,47.05
2023-04-18T09:59:51.816Z,47.68
2023-04-18T10:02:26.788Z,47.92
2023-04-18T10:04:56.303Z,47.41
2023-04-18T10:07:43.678Z,46.48
2023-04-18T10:10:11.066Z,45.71
2023-04-18T10:12:41.913Z,46.29
2023-04-18T10:15:11.880Z,45.74
2023-04-18T10:20:35.248Z,47.24
2023-04-18T10:23:31.262Z,47.36
2023-04-18T10:25:59.398Z,47.58
2023-04-18T10:28:33.319Z,47.20
2023-04-18T10:31:10.185Z,46.68
2023-04-18T10:34:05.114Z,46.73
2023-04-18T10:36:38.609Z,47.33
2023-04-18T10:39:57.570Z,47.01
2023-04-18T10:42:59.902Z,46.48
2023-04-18T10:45:34.184Z,47.39
2023-04-18T10:51:18.106Z,47.70
2023-04-18T10:53:57.817Z,47.42
2023-04-18T10:56:26.447Z,47.42
2023-04-18T10:59:02.168Z,47.57
2023-04-18T11:01:37.554Z,48.24
2023-04-18T11:04:14.544Z,47.91
2023-04-18T11:06:53.559Z,45.92
2023-04-18T11:09:24.244Z,46.76
2023-04-18T11:12:12.458Z,46.56
2023-04-18T11:14:45.016Z,46.79
2023-04-18T11:17:22.448Z,46.93
2023-04-18T11:19:50.373Z,46.47
2023-04-18T11:22:21.313Z,46.31
2023-04-18T11:25:14.357Z,45.83
2023-04-18T11:27:43.318Z,44.64
2023-04-18T11:30:11.722Z,44.74
2023-04-18T11:32:41.666Z,44.19
2023-04-18T11:35:12.760Z,44.59
2023-04-18T11:37:46.633Z,45.32
2023-04-18T11:40:14.642Z,45.43
2023-04-18T11:42:42.020Z,45.03
2023-04-18T11:45:21.055Z,45.89
2023-04-18T11:47:56.772Z,45.83
2023-04-18T11:50:24.013Z,46.35
2023-04-18T11:52:53.509Z,46.16
2023-04-18T11:55:23.207Z,46.36
2023-04-18T11:58:04.695Z,46.24
2023-04-18T12:00:43.661Z,46.58
2023-04-18T12:03:19.930Z,46.21
2023-04-18T12:05:51.001Z,46.18
2023-04-18T12:08:21.904Z,46.86
2023-04-18T12:10:53.917Z,46.68
2023-04-18T12:13:32.736Z,47.15
2023-04-18T12:16:02.353Z,46.81
2023-04-18T12:18:32.810Z,46.93
2023-04-18T12:21:09.023Z,46.93
2023-04-18T12:23:51.740Z,46.84
2023-04-18T12:26:20.749Z,46.99
2023-04-18T12:28:51.380Z,47.08
2023-04-18T12:31:31.195Z,47.55
2023-04-18T12:34:01.728Z,47.53
2023-04-18T12:36:39.603Z,47.23
2023-04-18T12:39:07.751Z,47.02
2023-04-18T12:41:48.962Z,47.29
2023-04-18T12:44:16.769Z,47.82
2023-04-18T12:46:46.837Z,48.39
2023-04-18T12:49:13.746Z,48.39
2023-04-18T12:52:18.733Z,47.82
2023-04-18T12:54:51.659Z,47.48
2023-04-18T12:57:26.187Z,46.50
2023-04-18T12:59:53.266Z,46.91
2023-04-18T13:02:22.156Z,47.27
2023-04-18T13:04:52.196Z,46.92
2023-04-18T13:07:19.816Z,45.87
2023-04-18T13:09:46.956Z,46.65
2023-04-18T13:12:18.631Z,46.48
2023-04-18T13:14:45.534Z,46.78
2023-04-18T13:17:16.433Z,47.52
2023-04-18T13:19:46.063Z,47.45
2023-04-18T13:22:13.152Z,47.48
2023-04-18T13:24:46.153Z,47.28
2023-04-18T13:27:20.053Z,47.68
2023-04-18T13:29:49.337Z,47.61
2023-04-18T13:32:16.359Z,47.11
2023-04-18T13:34:52.727Z,47.73
2023-04-18T13:37:19.821Z,47.76
2023-04-18T13:39:46.794Z,47.27
2023-04-18T13:42:15.927Z,48.01
2023-04-18T13:44:43.082Z,47.51
2023-04-18T13:47:09.975Z,47.48
2023-04-18T13:50:00.230Z,47.53
2023-04-18T13:52:32.128Z,47.71
2023-04-18T13:55:02.196Z,47.66
2023-04-18T13:57:37.267Z,47.14
2023-04-18T14:00:16.528Z,47.57
2023-04-18T14:02:46.818Z,47.26
2023-04-18T14:05:14.036Z,47.22
2023-04-18T14:07:45.775Z,47.73
2023-04-18T14:10:21.900Z,46.93
2023-04-18T14:12:54.954Z,46.31
2023-04-18T14:15:21.949Z,47.39
2023-04-18T14:17:55.865Z,48.07
2023-04-18T14:20:23.029Z,48.50
2023-04-18T14:23:05.006Z,48.41
2023-04-18T14:25:31.904Z,48.69
2023-04-18T14:28:24.507Z,49.10
2023-04-18T14:31:02.747Z,49.20
2023-04-18T14:33:32.758Z,49.38
2023-04-18T14:36:05.736Z,49.47
2023-04-18T14:38:38.120Z,49.17
2023-04-18T14:41:07.935Z,49.49
2023-04-18T14:43:34.897Z,49.66
2023-04-18T14:46:01.732Z,49.65
2023-04-18T14:48:31.612Z,49.97
2023-04-18T14:50:59.641Z,49.80
2023-04-18T14:53:27.567Z,49.77
2023-04-18T14:55:54.946Z,49.53
2023-04-18T14:58:22.065Z,49.62
2023-04-18T15:00:58.090Z,49.78
2023-04-18T15:03:30.650Z,49.44
2023-04-18T15:05:57.979Z,49.41
2023-04-18T15:08:26.459Z,49.09
2023-04-18T15:10:53.307Z,49.54
2023-04-18T15:13:24.132Z,50.07
2023-04-18T15:15:55.750Z,50.01
2023-04-18T15:18:22.760Z,49.73
2023-04-18T15:20:49.723Z,49.67
2023-04-18T15:23:25.041Z,50.29
2023-04-18T15:25:51.841Z,50.25
2023-04-18T15:31:08.338Z,48.12
2023-04-18T15:33:38.019Z,47.70
2023-04-18T15:36:07.599Z,47.50
2023-04-18T15:38:34.475Z,48.64
2023-04-18T15:41:01.352Z,49.52
2023-04-18T15:43:32.494Z,49.48
2023-04-18T15:46:00.441Z,49.14
2023-04-18T15:48:34.648Z,49.11
2023-04-18T15:51:05.605Z,49.87
2023-04-18T15:53:32.903Z,50.08
2023-04-18T15:56:19.432Z,50.11
2023-04-18T15:58:46.793Z,49.63
2023-04-18T16:01:16.167Z,49.94
2023-04-18T16:03:43.949Z,49.98
2023-04-18T16:06:15.378Z,50.06
2023-04-18T16:08:51.588Z,50.23
2023-04-18T16:11:22.124Z,49.40
2023-04-18T16:13:53.779Z,50.02
2023-04-18T16:16:29.112Z,49.84
2023-04-18T16:18:55.913Z,49.62
2023-04-18T16:21:31.602Z,49.97
2023-04-18T16:24:06.996Z,49.82
2023-04-18T16:26:34.008Z,49.53
2023-04-18T16:29:05.737Z,49.77
2023-04-18T16:31:33.998Z,47.79
2023-04-18T16:34:16.729Z,46.45
2023-04-18T16:36:43.685Z,47.36
2023-04-18T16:39:10.615Z,46.54
2023-04-18T16:41:37.485Z,47.04
2023-04-18T16:44:04.578Z,45.95
2023-04-18T16:46:38.472Z,46.75
2023-04-18T16:49:05.825Z,46.83
2023-04-18T16:51:32.895Z,46.09
2023-04-18T16:54:07.735Z,44.06
2023-04-18T16:56:39.409Z,43.32
2023-04-18T16:59:13.169Z,44.10
2023-04-18T17:01:40.100Z,44.92
2023-04-18T17:04:10.212Z,45.88
2023-04-18T17:06:45.118Z,46.13
2023-04-18T17:09:24.064Z,46.57
2023-04-18T17:11:54.432Z,47.40
2023-04-18T17:14:25.156Z,47.61
2023-04-18T17:16:53.757Z,48.17
2023-04-18T17:19:23.835Z,48.17
2023-04-18T17:21:54.116Z,47.71
2023-04-18T17:24:33.710Z,48.11
2023-04-18T17:27:06.459Z,48.45
2023-04-18T17:29:35.319Z,48.32
2023-04-18T17:32:06.341Z,48.55
2023-04-18T17:34:43.329Z,48.27
2023-04-18T17:37:14.913Z,48.51
2023-04-18T17:39:49.137Z,47.94
2023-04-18T17:45:02.610Z,48.21
2023-04-18T17:47:33.830Z,48.36
2023-04-18T17:50:10.740Z,48.50
2023-04-18T17:52:37.999Z,48.52
2023-04-18T17:55:12.142Z,48.37
2023-04-18T17:57:43.255Z,49.04
2023-04-18T18:00:14.648Z,48.59
2023-04-18T18:02:47.719Z,48.89
2023-04-18T18:05:20.057Z,48.33
2023-04-18T18:07:48.163Z,48.32
2023-04-18T18:10:26.406Z,48.13
2023-04-18T18:12:53.184Z,48.45
2023-04-18T18:15:20.381Z,48.23
2023-04-18T18:17:51.283Z,48.12
2023-04-18T18:20:18.639Z,48.31
2023-04-18T18:22:48.747Z,49.07
2023-04-18T18:25:15.709Z,48.85
2023-04-18T18:27:42.873Z,48.92
2023-04-18T18:30:09.996Z,49.24
2023-04-18T18:32:36.973Z,49.87
2023-04-18T18:35:12.485Z,50.54
2023-04-18T18:37:53.180Z,50.55
2023-04-18T18:40:21.335Z,51.12
2023-04-18T18:42:51.585Z,51.51
2023-04-18T18:45:19.949Z,51.47
2023-04-18T18:47:52.663Z,51.19
2023-04-18T18:50:22.680Z,51.29
2023-04-18T18:52:52.602Z,51.22
2023-04-18T18:55:19.551Z,50.68
2023-04-18T18:57:56.517Z,51.11
2023-04-18T19:00:23.518Z,51.35
2023-04-18T19:02:50.551Z,51.31
2023-04-18T19:05:18.074Z,51.49
2023-04-18T19:07:46.111Z,51.34
2023-04-18T19:10:13.040Z,51.31
2023-04-18T19:12:39.906Z,51.03
2023-04-18T19:15:10.335Z,51.38
2023-04-18T19:17:40.033Z,51.51
2023-04-18T19:20:07.685Z,51.55
2023-04-18T19:22:38.241Z,51.55
2023-04-18T19:25:09.210Z,51.61
2023-04-18T19:27:36.518Z,50.78
2023-04-18T19:30:03.620Z,51.29
2023-04-18T19:32:34.653Z,51.42
2023-04-18T19:35:04.839Z,51.84
2023-04-18T19:37:34.645Z,51.92
2023-04-18T19:40:02.993Z,51.90
2023-04-18T19:42:29.952Z,52.49
2023-04-18T19:45:06.542Z,53.19
2023-04-18T19:47:34.227Z,53.88
2023-04-18T19:50:08.765Z,53.92
2023-04-18T19:52:36.548Z,53.74
2023-04-18T19:55:03.570Z,54.67
2023-04-18T19:57:39.161Z,54.94
2023-04-18T20:00:16.210Z,54.77
2023-04-18T20:02:44.696Z,54.92
2023-04-18T20:05:13.194Z,54.47
2023-04-18T20:07:43.194Z,55.42
2023-04-18T20:10:16.237Z,55.48
2023-04-18T20:12:50.217Z,55.57
2023-04-18T20:15:17.252Z,55.90
2023-04-18T20:17:44.093Z,55.99
2023-04-18T20:20:14.283Z,56.18
2023-04-18T20:22:48.049Z,56.51
2023-04-18T20:25:14.932Z,56.63
2023-04-18T20:27:54.503Z,56.85
2023-04-18T20:30:22.499Z,57.23
2023-04-18T20:32:52.555Z,57.32
2023-04-18T20:35:28.516Z,56.98
2023-04-18T20:37:55.772Z,56.45
2023-04-18T20:40:30.598Z,57.02
2023-04-18T20:43:07.024Z,57.35
2023-04-18T20:45:37.832Z,57.65
2023-04-18T20:48:10.936Z,56.69
2023-04-18T20:50:44.057Z,56.61
2023-04-18T20:53:13.944Z,56.94
2023-04-18T20:55:44.046Z,56.91
2023-04-18T20:58:14.992Z,57.25
2023-04-18T21:00:50.483Z,57.35
2023-04-18T21:03:19.939Z,57.18
2023-04-18T21:05:47.230Z,57.39
2023-04-18T21:08:14.158Z,56.95
2023-04-18T21:10:41.056Z,57.03
2023-04-18T21:13:13.124Z,57.88
2023-04-18T21:15:55.010Z,58.17
2023-04-18T21:18:31.128Z,58.32
2023-04-18T21:21:08.730Z,57.90
2023-04-18T21:23:42.251Z,57.77
2023-04-18T21:26:17.016Z,58.11
2023-04-18T21:29:04.965Z,57.48
2023-04-18T21:31:34.291Z,57.62
2023-04-18T21:34:05.338Z,57.69
2023-04-18T21:39:27.110Z,56.87
2023-04-18T21:42:09.114Z,57.00
2023-04-18T21:44:36.745Z,56.68
2023-04-18T21:47:06.745Z,57.38
2023-04-18T21:49:56.760Z,58.41
2023-04-18T21:52:23.693Z,59.21
2023-04-18T21:54:59.244Z,59.27
2023-04-18T21:57:33.713Z,59.56
2023-04-18T22:00:16.750Z,59.85
2023-04-18T22:02:45.115Z,59.87
2023-04-18T22:05:20.169Z,59.18
2023-04-18T22:07:57.379Z,59.22
2023-04-18T22:10:26.201Z,59.13
2023-04-18T22:12:54.600Z,59.86
2023-04-18T22:15:22.115Z,59.39
2023-04-18T22:17:50.567Z,59.77
2023-04-18T22:20:23.762Z,60.34
2023-04-18T22:22:59.476Z,60.08
2023-04-18T22:25:31.416Z,60.09
2023-04-18T22:28:06.308Z,59.80
2023-04-18T22:30:41.327Z,59.43
2023-04-18T22:33:17.209Z,60.30
2023-04-18T22:35:44.104Z,60.68
2023-04-18T22:38:13.601Z,61.02
2023-04-18T22:40:41.787Z,61.59
2023-04-18T22:43:11.895Z,61.16
2023-04-18T22:45:45.043Z,61.18
2023-04-18T22:48:13.632Z,61.41
2023-04-18T22:50:43.802Z,61.27
2023-04-18T22:53:17.759Z,61.00
2023-04-18T22:55:55.634Z,61.54
2023-04-18T22:58:37.646Z,61.83
2023-04-18T23:01:04.647Z,61.69
2023-04-18T23:03:40.789Z,61.31
2023-04-18T23:06:08.250Z,60.77
2023-04-18T23:08:44.396Z,59.94
2023-04-18T23:11:13.693Z,59.67
2023-04-18T23:13:52.008Z,59.99
2023-04-18T23:16:18.968Z,58.87
2023-04-18T23:18:45.938Z,58.42
2023-04-18T23:21:17.896Z,58.59
2023-04-18T23:23:52.660Z,58.45
2023-04-18T23:26:22.646Z,58.64
2023-04-18T23:29:18.788Z,59.15
2023-04-18T23:31:45.749Z,57.80
2023-04-18T23:34:18.565Z,56.92
2023-04-18T23:36:53.455Z,56.83
2023-04-18T23:39:21.847Z,57.68
2023-04-18T23:41:56.038Z,58.07
2023-04-18T23:44:23.298Z,57.26
2023-04-18T23:46:50.947Z,56.82
2023-04-18T23:49:17.949Z,56.77
2023-04-18T23:54:34.350Z,57.12
2023-04-18T23:57:02.032Z,57.38
2023-04-18T23:59:28.969Z,57.83
